Terminal Aerodrome Forecast
Issued by NWS

Home | Current Version | Previous Version | Text Only | Print | Product List | Glossary On
Versions: 1 2 3 4 5 6 7 8 9 10 11 12 13 14 15 16 17 18 19 20 21 22 23 24 25
000
FTUS41 KOKX 051123
TAFTEB
TAF
KTEB 051123Z 0512/0612 30004KT P6SM FEW050 SCT250
     FM051600 24006KT P6SM FEW060
     FM051900 20007KT P6SM FEW060
     FM052100 17009KT P6SM FEW060
     FM060100 21004KT P6SM FEW060
     FM060600 VRB02KT 3SM BR FEW006 SCT250=

USA.gov is the U.S. government's official web portal to all federal, state and local government web resources and services.